createdAt,value
2019-04-22T00:04:32.367Z,5.70
2019-04-22T00:09:53.011Z,5.47
2019-04-22T00:14:55.561Z,5.00
2019-04-22T00:25:17.673Z,6.13
2019-04-22T00:35:26.842Z,5.77
2019-04-22T00:40:33.919Z,5.57
2019-04-22T00:45:44.558Z,6.00
2019-04-22T00:51:01.695Z,5.40
2019-04-22T00:56:08.123Z,5.67
2019-04-22T01:06:20.355Z,6.23
2019-04-22T01:11:29.530Z,5.07
2019-04-22T01:16:37.958Z,4.97
2019-04-22T01:21:40.815Z,5.87
2019-04-22T01:26:43.380Z,5.73
2019-04-22T01:31:36.282Z,5.40
2019-04-22T01:36:57.763Z,5.93
2019-04-22T01:42:10.465Z,5.47
2019-04-22T01:47:22.955Z,5.70
2019-04-22T01:52:20.304Z,5.40
2019-04-22T01:57:30.090Z,5.37
2019-04-22T02:02:42.262Z,5.00
2019-04-22T02:07:49.288Z,5.70
2019-04-22T02:12:57.763Z,5.70
2019-04-22T02:18:11.585Z,5.33
2019-04-22T02:23:45.810Z,5.53
2019-04-22T02:28:40.065Z,5.57
2019-04-22T02:44:08.423Z,6.43
2019-04-22T02:49:25.339Z,6.13
2019-04-22T02:54:36.473Z,5.97
2019-04-22T02:59:28.774Z,5.83
2019-04-22T03:04:24.259Z,6.00
2019-04-22T03:30:45.435Z,6.07
2019-04-22T03:40:34.614Z,6.07
2019-04-22T03:55:45.088Z,6.30
2019-04-22T04:10:57.873Z,5.90
2019-04-22T04:16:10.841Z,5.40
2019-04-22T04:42:07.314Z,5.30
2019-04-22T04:52:14.543Z,5.70
2019-04-22T04:57:14.435Z,5.10
2019-04-22T05:17:47.161Z,5.67
2019-04-22T05:28:06.940Z,5.43
2019-04-22T05:32:58.708Z,5.30
2019-04-22T05:38:13.411Z,5.37
2019-04-22T05:43:29.486Z,5.13
2019-04-22T05:48:18.358Z,5.47
2019-04-22T05:53:25.867Z,5.70
2019-04-22T05:58:38.428Z,5.30
2019-04-22T06:03:46.596Z,5.00
2019-04-22T06:08:48.839Z,4.70
2019-04-22T06:13:51.976Z,4.30
2019-04-22T06:19:12.598Z,5.33
2019-04-22T06:24:20.401Z,4.60
2019-04-22T06:39:46.719Z,4.87
2019-04-22T06:44:58.136Z,4.67
2019-04-22T06:49:52.686Z,4.53
2019-04-22T06:54:54.802Z,4.30
2019-04-22T07:00:05.312Z,4.47
2019-04-22T07:05:07.808Z,4.70
2019-04-22T07:10:30.476Z,4.00
2019-04-22T07:15:44.143Z,4.40
2019-04-22T07:25:56.541Z,4.33
2019-04-22T07:30:44.782Z,3.93
2019-04-22T07:36:12.549Z,3.90
2019-04-22T07:40:59.511Z,4.00
2019-04-22T07:46:11.335Z,3.80
2019-04-22T07:56:23.937Z,3.60
2019-04-22T08:01:30.859Z,3.53
2019-04-22T08:06:46.375Z,3.60
2019-04-22T08:11:51.263Z,3.30
2019-04-22T08:17:05.056Z,3.60
2019-04-22T08:22:01.482Z,3.70
2019-04-22T08:27:10.340Z,3.47
2019-04-22T08:32:14.603Z,3.27
2019-04-22T08:42:45.163Z,3.40
2019-04-22T08:52:55.884Z,3.10
2019-04-22T08:58:16.719Z,3.03
2019-04-22T09:03:04.398Z,3.17
2019-04-22T09:08:15.572Z,3.10
2019-04-22T09:13:14.538Z,2.80
2019-04-22T09:23:37.235Z,2.87
2019-04-22T09:28:44.377Z,2.77
2019-04-22T09:33:43.216Z,3.00
2019-04-22T09:38:52.803Z,3.10
2019-04-22T09:49:12.139Z,2.93
2019-04-22T09:54:21.827Z,2.90
2019-04-22T09:59:23.778Z,2.90
2019-04-22T10:04:34.702Z,3.50
2019-04-22T10:09:49.520Z,3.50
2019-04-22T10:19:53.006Z,3.37
2019-04-22T10:25:06.316Z,3.43
2019-04-22T10:30:08.521Z,2.80
2019-04-22T10:35:18.315Z,3.10
2019-04-22T10:40:25.768Z,3.33
2019-04-22T10:45:32.403Z,3.30
2019-04-22T10:50:43.371Z,3.17
2019-04-22T10:55:51.058Z,3.47
2019-04-22T11:00:58.111Z,3.47
2019-04-22T11:06:05.514Z,3.27
2019-04-22T11:11:26.257Z,3.13
2019-04-22T11:16:19.356Z,3.10
2019-04-22T11:21:25.435Z,3.23
2019-04-22T11:26:31.805Z,3.03
2019-04-22T11:31:38.684Z,3.10
2019-04-22T11:36:45.043Z,3.20
2019-04-22T11:41:51.908Z,3.20
2019-04-22T11:46:57.487Z,2.80
2019-04-22T11:52:06.506Z,3.30
2019-04-22T11:57:10.834Z,3.53
2019-04-22T12:02:19.236Z,3.23
2019-04-22T12:07:24.596Z,3.20
2019-04-22T12:12:30.085Z,3.10
2019-04-22T12:17:36.250Z,3.40
2019-04-22T12:22:42.938Z,3.30
2019-04-22T12:27:48.684Z,3.70
2019-04-22T12:32:54.647Z,2.87
2019-04-22T12:38:06.113Z,2.97
2019-04-22T12:43:08.685Z,3.00
2019-04-22T12:48:15.100Z,2.97
2019-04-22T12:53:24.915Z,2.73
2019-04-22T12:58:27.811Z,3.07
2019-04-22T13:03:34.109Z,3.03
2019-04-22T13:08:39.624Z,3.10
2019-04-22T13:13:45.217Z,2.77
2019-04-22T13:18:57.586Z,3.03
2019-04-22T13:23:59.108Z,3.00
2019-04-22T13:29:05.246Z,2.73
2019-04-22T13:34:21.619Z,3.00
2019-04-22T13:39:18.784Z,2.70
2019-04-22T13:44:25.094Z,3.10
2019-04-22T13:50:18.226Z,2.80
2019-04-22T13:55:01.729Z,2.60
2019-04-22T13:59:50.527Z,2.60
2019-04-22T14:04:52.844Z,2.80
2019-04-22T14:09:58.423Z,2.60
2019-04-22T14:15:04.271Z,3.03
2019-04-22T14:20:10.939Z,2.90
2019-04-22T14:25:16.678Z,2.60
2019-04-22T14:30:22.440Z,2.80
2019-04-22T14:35:29.075Z,2.90
2019-04-22T14:40:36.221Z,3.13
2019-04-22T14:51:07.219Z,2.70
2019-04-22T14:55:56.344Z,2.80
2019-04-22T15:01:03.220Z,2.87
2019-04-22T15:06:10.414Z,2.50
2019-04-22T15:11:17.183Z,2.73
2019-04-22T15:16:42.594Z,2.60
2019-04-22T15:21:48.115Z,3.03
2019-04-22T15:26:54.216Z,2.80
2019-04-22T15:31:59.981Z,2.90
2019-04-22T15:37:06.538Z,3.10
2019-04-22T15:42:19.843Z,3.30
2019-04-22T15:47:20.651Z,2.70
2019-04-22T15:52:32.020Z,2.90
2019-04-22T15:57:38.027Z,3.10
2019-04-22T16:02:45.710Z,2.80
2019-04-22T16:07:53.011Z,3.20
2019-04-22T16:13:14.492Z,2.90
2019-04-22T16:18:18.226Z,2.80
2019-04-22T16:23:56.428Z,2.60
2019-04-22T16:29:03.329Z,2.60
2019-04-22T16:34:09.451Z,2.80
2019-04-22T16:39:15.309Z,3.07
2019-04-22T16:44:20.821Z,2.73
2019-04-22T16:49:27.627Z,3.10
2019-04-22T16:54:33.150Z,2.40
2019-04-22T16:59:38.543Z,2.77
2019-04-22T17:04:51.824Z,2.93
2019-04-22T17:09:57.646Z,2.83
2019-04-22T17:15:08.074Z,3.30
2019-04-22T17:20:11.298Z,2.80
2019-04-22T17:25:18.274Z,3.00
2019-04-22T17:30:24.371Z,3.17
2019-04-22T17:35:31.591Z,2.73
2019-04-22T17:40:52.200Z,2.80
2019-04-22T17:46:24.710Z,2.87
2019-04-22T17:51:39.644Z,2.80
2019-04-22T17:56:58.540Z,2.80
2019-04-22T18:01:48.870Z,3.03
2019-04-22T18:07:10.222Z,2.90
2019-04-22T18:12:16.303Z,3.20
2019-04-22T18:17:17.406Z,2.90
2019-04-22T18:22:12.550Z,2.53
2019-04-22T18:27:40.160Z,2.80
2019-04-22T18:32:30.553Z,2.50
2019-04-22T18:37:46.875Z,2.80
2019-04-22T18:42:52.529Z,2.60
2019-04-22T18:47:48.802Z,2.50
2019-04-22T18:53:28.653Z,2.70
2019-04-22T18:58:21.276Z,2.73
2019-04-22T19:03:21.755Z,2.80
2019-04-22T19:08:43.028Z,2.80
2019-04-22T19:14:05.942Z,2.83
2019-04-22T19:19:20.630Z,2.90
2019-04-22T19:24:06.759Z,2.90
2019-04-22T19:29:21.893Z,2.60
2019-04-22T19:34:20.568Z,2.83
2019-04-22T19:39:27.298Z,2.40
2019-04-22T19:44:41.148Z,2.67
2019-04-22T19:49:52.911Z,2.50
2019-04-22T19:54:54.945Z,2.73
2019-04-22T19:59:56.241Z,2.43
2019-04-22T20:05:33.649Z,2.80
2019-04-22T20:10:38.016Z,2.40
2019-04-22T20:15:37.095Z,2.80
2019-04-22T20:20:54.384Z,2.57
2019-04-22T20:25:51.401Z,2.30
2019-04-22T20:31:04.017Z,2.53
2019-04-22T20:36:36.411Z,2.20
2019-04-22T20:41:17.010Z,2.43
2019-04-22T20:46:23.872Z,2.27
2019-04-22T20:51:43.908Z,2.63
2019-04-22T20:56:38.643Z,2.33
2019-04-22T21:01:43.058Z,2.20
2019-04-22T21:06:54.316Z,2.33
2019-04-22T21:11:56.684Z,2.63
2019-04-22T21:17:08.055Z,2.50
2019-04-22T21:22:22.103Z,2.17
2019-04-22T21:27:28.271Z,2.13
2019-04-22T21:32:33.947Z,2.67
2019-04-22T21:37:43.273Z,2.03
2019-04-22T21:42:53.095Z,2.00
2019-04-22T21:48:04.529Z,2.17
2019-04-22T21:53:09.829Z,2.00
2019-04-22T21:58:19.524Z,2.13
2019-04-22T22:03:23.599Z,2.33
2019-04-22T22:08:42.326Z,2.20
2019-04-22T22:13:40.320Z,2.17
2019-04-22T22:18:50.824Z,1.87
2019-04-22T22:24:01.302Z,1.90
2019-04-22T22:29:07.761Z,2.03
2019-04-22T22:34:13.709Z,2.07
2019-04-22T22:39:08.605Z,1.90
2019-04-22T22:44:11.559Z,2.07
2019-04-22T22:49:33.000Z,1.90
2019-04-22T22:54:39.247Z,1.80
2019-04-22T22:59:44.199Z,2.03
2019-04-22T23:04:51.183Z,1.90
2019-04-22T23:10:01.677Z,2.07
2019-04-22T23:15:06.261Z,2.20
2019-04-22T23:19:55.782Z,2.00
2019-04-22T23:25:27.489Z,1.80
2019-04-22T23:30:35.865Z,1.93
2019-04-22T23:35:59.453Z,2.00
2019-04-22T23:41:40.374Z,1.80
2019-04-22T23:46:41.171Z,1.70
2019-04-22T23:52:00.990Z,1.83
2019-04-22T23:56:52.581Z,1.70
